createdAt,value
2022-12-03T00:00:42.700Z,95573.28
2022-12-03T00:03:13.631Z,95572.84
2022-12-03T00:05:48.710Z,95578.09
2022-12-03T00:08:19.058Z,95582.38
2022-12-03T00:10:48.731Z,95577.31
2022-12-03T00:13:18.063Z,95589.44
2022-12-03T00:15:47.475Z,95596.16
2022-12-03T00:18:19.016Z,95590.69
2022-12-03T00:20:48.220Z,95603.66
2022-12-03T00:23:17.459Z,95606.88
2022-12-03T00:25:46.644Z,95606.69
2022-12-03T00:28:16.178Z,95603.66
2022-12-03T00:30:45.429Z,95611.38
2022-12-03T00:33:15.261Z,95614.63
2022-12-03T00:35:46.434Z,95614.81
2022-12-03T00:38:16.365Z,95605.72
2022-12-03T00:40:46.702Z,95612.19
2022-12-03T00:43:16.340Z,95614.81
2022-12-03T00:45:45.528Z,95614.63
2022-12-03T00:48:15.084Z,95617.63
2022-12-03T00:50:45.709Z,95613.00
2022-12-03T00:53:14.795Z,95617.84
2022-12-03T00:55:43.914Z,95614.41
2022-12-03T00:58:13.015Z,95625.53
2022-12-03T01:00:42.250Z,95625.16
2022-12-03T01:03:11.681Z,95625.53
2022-12-03T01:05:40.922Z,95631.63
2022-12-03T01:08:12.612Z,95622.53
2022-12-03T01:10:41.775Z,95622.09
2022-12-03T01:13:11.052Z,95631.41
2022-12-03T01:15:40.337Z,95635.06
2022-12-03T01:18:09.699Z,95639.34
2022-12-03T01:20:39.498Z,95642.56
2022-12-03T01:23:25.361Z,95646.41
2022-12-03T01:25:54.355Z,95638.91
2022-12-03T01:28:23.539Z,95636.91
2022-12-03T01:31:10.001Z,95630.44
2022-12-03T01:33:40.046Z,95627.56
2022-12-03T01:36:09.921Z,95632.81
2022-12-03T01:38:41.182Z,95636.88
2022-12-03T01:41:12.032Z,95639.31
2022-12-03T01:43:42.126Z,95633.63
2022-12-03T01:46:12.615Z,95628.81
2022-12-03T01:48:42.257Z,95632.88
2022-12-03T01:51:11.415Z,95635.28
2022-12-03T01:53:42.874Z,95631.25
2022-12-03T01:56:16.154Z,95629.44
2022-12-03T01:58:47.288Z,95624.28
2022-12-03T02:01:19.317Z,95621.91
2022-12-03T02:03:49.165Z,95622.47
2022-12-03T02:06:20.471Z,95621.47
2022-12-03T02:08:59.374Z,95623.91
2022-12-03T02:11:32.608Z,95620.84
2022-12-03T02:14:04.274Z,95620.38
2022-12-03T02:16:33.738Z,95625.03
2022-12-03T02:19:03.676Z,95626.09
2022-12-03T02:21:40.426Z,95629.16
2022-12-03T02:24:17.175Z,95619.44
2022-12-03T02:26:47.865Z,95615.94
2022-12-03T02:29:17.315Z,95611.75
2022-12-03T02:31:47.142Z,95616.00
2022-12-03T02:34:37.918Z,95626.34
2022-12-03T02:37:09.167Z,95630.19
2022-12-03T02:39:42.009Z,95632.38
2022-12-03T02:42:31.050Z,95631.53
2022-12-03T02:45:05.367Z,95622.94
2022-12-03T02:47:37.233Z,95625.47
2022-12-03T02:50:07.524Z,95618.00
2022-12-03T02:52:37.081Z,95622.44
2022-12-03T02:55:09.388Z,95625.81
2022-12-03T02:57:41.425Z,95626.28
2022-12-03T03:00:13.234Z,95618.34
2022-12-03T03:02:43.502Z,95610.88
2022-12-03T03:05:13.871Z,95618.41
2022-12-03T03:07:43.621Z,95617.00
2022-12-03T03:10:15.762Z,95615.19
2022-12-03T03:12:46.302Z,95617.13
2022-12-03T03:15:18.552Z,95617.94
2022-12-03T03:17:47.796Z,95618.13
2022-12-03T03:20:17.186Z,95619.53
2022-12-03T03:22:46.359Z,95612.88
2022-12-03T03:25:21.295Z,95616.72
2022-12-03T03:27:52.136Z,95608.84
2022-12-03T03:30:21.747Z,95608.66
2022-12-03T03:32:50.867Z,95611.72
2022-12-03T03:35:20.400Z,95623.88
2022-12-03T03:37:49.550Z,95617.81
2022-12-03T03:40:19.075Z,95613.75
2022-12-03T03:42:48.416Z,95627.72
2022-12-03T03:45:23.996Z,95622.19
2022-12-03T03:47:56.831Z,95630.53
2022-12-03T03:50:27.226Z,95634.16
2022-12-03T03:52:57.563Z,95634.28
2022-12-03T03:55:31.310Z,95631.53
2022-12-03T03:58:03.625Z,95626.78
2022-12-03T04:00:34.878Z,95618.72
2022-12-03T04:03:05.451Z,95631.53
2022-12-03T04:05:35.203Z,95633.38
2022-12-03T04:08:07.830Z,95642.72
2022-12-03T04:10:54.565Z,95640.88
2022-12-03T04:13:24.401Z,95643.31
2022-12-03T04:15:54.994Z,95642.22
2022-12-03T04:18:41.649Z,95639.81
2022-12-03T04:21:32.492Z,95641.63
2022-12-03T04:24:02.271Z,95641.16
2022-12-03T04:26:48.996Z,95646.88
2022-12-03T04:29:20.426Z,95645.06
2022-12-03T04:32:08.431Z,95646.94
2022-12-03T04:34:55.749Z,95644.13
2022-12-03T04:37:25.036Z,95652.22
2022-12-03T04:39:54.200Z,95651.00
2022-12-03T04:42:23.369Z,95646.03
2022-12-03T04:44:52.795Z,95655.72
2022-12-03T04:47:23.851Z,95651.56
2022-12-03T04:49:53.436Z,95662.28
2022-12-03T04:52:23.299Z,95662.16
2022-12-03T04:54:53.395Z,95654.34
2022-12-03T04:57:23.180Z,95662.69
2022-12-03T04:59:52.196Z,95656.03
2022-12-03T05:02:23.040Z,95658.06
2022-12-03T05:04:53.085Z,95646.75
2022-12-03T05:07:22.206Z,95649.56
2022-12-03T05:09:52.196Z,95651.03
2022-12-03T05:12:21.849Z,95653.66
2022-12-03T05:14:52.132Z,95661.63
2022-12-03T05:17:22.940Z,95659.00
2022-12-03T05:20:09.304Z,95663.06
2022-12-03T05:22:41.378Z,95658.59
2022-12-03T05:25:11.337Z,95663.69
2022-12-03T05:27:42.099Z,95662.53
2022-12-03T05:30:12.309Z,95669.06
2022-12-03T05:32:43.236Z,95672.84
2022-12-03T05:35:13.013Z,95674.34
2022-12-03T05:37:42.151Z,95680.25
2022-12-03T05:40:13.577Z,95684.31
2022-12-03T05:42:57.826Z,95678.88
2022-12-03T05:45:29.254Z,95679.28
2022-12-03T05:48:01.194Z,95685.69
2022-12-03T05:50:31.802Z,95687.31
2022-12-03T05:53:17.212Z,95691.00
2022-12-03T05:55:47.257Z,95692.63
2022-12-03T05:58:16.321Z,95698.81
2022-12-03T06:00:45.457Z,95696.19
2022-12-03T06:03:16.199Z,95702.03
2022-12-03T06:05:45.616Z,95699.09
2022-12-03T06:08:15.261Z,95702.56
2022-12-03T06:10:44.911Z,95705.78
2022-12-03T06:13:20.531Z,95709.22
2022-12-03T06:15:49.727Z,95709.22
2022-12-03T06:18:23.258Z,95709.75
2022-12-03T06:20:52.320Z,95717.63
2022-12-03T06:23:21.584Z,95711.63
2022-12-03T06:25:52.499Z,95711.03
2022-12-03T06:28:21.739Z,95707.59
2022-12-03T06:30:51.727Z,95705.59
2022-12-03T06:33:21.073Z,95708.84
2022-12-03T06:35:51.668Z,95706.44
2022-12-03T06:38:21.450Z,95708.38
2022-12-03T06:40:50.989Z,95701.28
2022-12-03T06:43:20.654Z,95715.19
2022-12-03T06:45:49.886Z,95712.63
2022-12-03T06:48:19.104Z,95722.38
2022-12-03T06:50:48.373Z,95723.00
2022-12-03T06:53:18.860Z,95718.19
2022-12-03T06:55:48.168Z,95723.06
2022-12-03T06:58:17.299Z,95722.00
2022-12-03T07:00:46.633Z,95726.09
2022-12-03T07:03:15.793Z,95727.75
2022-12-03T07:05:45.132Z,95724.44
2022-12-03T07:08:14.300Z,95725.09
2022-12-03T07:10:45.504Z,95728.00
2022-12-03T07:13:14.806Z,95732.63
2022-12-03T07:15:44.302Z,95734.09
2022-12-03T07:18:13.456Z,95726.59
2022-12-03T07:20:42.741Z,95742.19
2022-12-03T07:23:12.402Z,95735.34
2022-12-03T07:25:41.875Z,95734.59
2022-12-03T07:28:12.942Z,95745.53
2022-12-03T07:30:42.402Z,95741.97
2022-12-03T07:33:11.521Z,95739.00
2022-12-03T07:35:41.894Z,95743.00
2022-12-03T07:38:11.096Z,95750.16
2022-12-03T07:40:40.638Z,95749.09
2022-12-03T07:43:12.035Z,95750.53
2022-12-03T07:45:41.262Z,95747.78
2022-12-03T07:48:10.420Z,95748.34
2022-12-03T07:50:40.591Z,95749.97
2022-12-03T07:53:10.270Z,95752.16
2022-12-03T07:55:40.039Z,95753.53
2022-12-03T07:58:09.347Z,95753.78
2022-12-03T08:00:40.341Z,95750.38
2022-12-03T08:03:09.574Z,95757.25
2022-12-03T08:05:38.932Z,95756.06
2022-12-03T08:08:09.423Z,95751.66
2022-12-03T08:10:38.582Z,95749.66
2022-12-03T08:13:13.400Z,95750.75
2022-12-03T08:15:44.308Z,95761.19
2022-12-03T08:18:17.494Z,95760.09
2022-12-03T08:20:49.059Z,95760.50
2022-12-03T08:23:20.907Z,95764.34
2022-12-03T08:25:51.626Z,95763.44
2022-12-03T08:28:22.646Z,95768.78
2022-12-03T08:31:04.660Z,95769.84
2022-12-03T08:33:36.206Z,95774.84
2022-12-03T08:36:14.803Z,95777.38
2022-12-03T08:38:51.005Z,95783.50
2022-12-03T08:41:42.772Z,95780.72
2022-12-03T08:44:27.747Z,95775.75
2022-12-03T08:47:08.744Z,95773.66
2022-12-03T08:49:39.007Z,95778.56
2022-12-03T08:52:17.198Z,95774.59
2022-12-03T08:54:55.531Z,95777.31
2022-12-03T08:57:29.823Z,95772.91
2022-12-03T09:00:05.344Z,95775.41
2022-12-03T09:02:36.515Z,95772.91
2022-12-03T09:05:17.549Z,95769.06
2022-12-03T09:07:46.634Z,95769.13
2022-12-03T09:10:18.454Z,95763.44
2022-12-03T09:12:48.163Z,95767.44
2022-12-03T09:15:17.374Z,95769.28
2022-12-03T09:17:49.214Z,95769.53
2022-12-03T09:20:18.742Z,95760.81
2022-12-03T09:22:47.943Z,95764.09
2022-12-03T09:25:18.245Z,95766.50
2022-12-03T09:27:47.475Z,95753.75
2022-12-03T09:30:17.078Z,95766.09
2022-12-03T09:32:48.232Z,95763.28
2022-12-03T09:35:17.885Z,95763.09
2022-12-03T09:37:47.199Z,95758.25
2022-12-03T09:40:16.754Z,95767.19
2022-12-03T09:42:46.479Z,95765.19
2022-12-03T09:45:17.317Z,95766.41
2022-12-03T09:47:50.646Z,95759.53
2022-12-03T09:50:23.432Z,95754.59
2022-12-03T09:52:56.120Z,95751.00
2022-12-03T09:55:29.330Z,95751.63
2022-12-03T09:58:13.105Z,95748.19
2022-12-03T10:00:43.798Z,95750.25
2022-12-03T10:03:16.466Z,95740.91
2022-12-03T10:05:48.325Z,95739.19
2022-12-03T10:08:22.113Z,95743.28
2022-12-03T10:10:54.288Z,95734.19
2022-12-03T10:13:26.385Z,95732.94
2022-12-03T10:15:57.948Z,95725.84
2022-12-03T10:18:32.714Z,95731.75
2022-12-03T10:21:05.738Z,95731.19
2022-12-03T10:23:34.826Z,95725.84
2022-12-03T10:26:05.294Z,95726.16
2022-12-03T10:28:36.599Z,95723.72
2022-12-03T10:31:08.548Z,95721.72
2022-12-03T10:33:42.082Z,95720.03
2022-12-03T10:36:32.041Z,95717.75
2022-12-03T10:39:12.860Z,95711.78
2022-12-03T10:41:43.209Z,95706.00
2022-12-03T10:44:19.513Z,95707.03
2022-12-03T10:47:07.625Z,95716.75
2022-12-03T10:49:40.067Z,95709.22
2022-12-03T10:52:26.024Z,95705.75
2022-12-03T10:54:55.957Z,95707.00
2022-12-03T10:57:26.396Z,95709.47
2022-12-03T10:59:55.556Z,95711.31
2022-12-03T11:02:26.453Z,95703.44
2022-12-03T11:04:57.167Z,95699.09
2022-12-03T11:07:26.592Z,95700.31
2022-12-03T11:09:59.036Z,95698.53
2022-12-03T11:12:34.909Z,95698.75
2022-12-03T11:15:07.716Z,95695.31
2022-12-03T11:17:48.755Z,95691.66
2022-12-03T11:21:00.264Z,95689.03
2022-12-03T11:24:06.093Z,95688.25
2022-12-03T11:27:19.355Z,95691.66
2022-12-03T11:29:57.849Z,95681.31
2022-12-03T11:33:09.313Z,95689.44
2022-12-03T11:36:12.952Z,95684.50
2022-12-03T11:38:59.855Z,95678.97
2022-12-03T11:41:34.255Z,95675.16
2022-12-03T11:44:34.836Z,95674.78
2022-12-03T11:47:16.572Z,95680.31
2022-12-03T11:49:50.519Z,95679.53
2022-12-03T11:52:29.760Z,95675.91
2022-12-03T11:55:04.708Z,95674.84
2022-12-03T11:57:43.418Z,95674.69
2022-12-03T12:00:22.627Z,95677.34
2022-12-03T12:02:53.815Z,95670.00
2022-12-03T12:05:27.333Z,95679.34
2022-12-03T12:07:58.386Z,95670.00
2022-12-03T12:10:48.797Z,95670.63
2022-12-03T12:13:30.037Z,95668.00
2022-12-03T12:16:02.782Z,95668.63
2022-12-03T12:18:55.210Z,95672.50
2022-12-03T12:21:41.708Z,95665.75
2022-12-03T12:24:33.715Z,95667.78
2022-12-03T12:27:05.123Z,95666.78
2022-12-03T12:29:34.799Z,95660.91
2022-12-03T12:32:15.396Z,95660.09
2022-12-03T12:34:46.707Z,95658.66
2022-12-03T12:37:22.255Z,95656.22
2022-12-03T12:40:15.807Z,95651.13
2022-12-03T12:42:55.356Z,95655.03
2022-12-03T12:45:26.772Z,95659.69
2022-12-03T12:48:19.195Z,95646.47
2022-12-03T12:50:51.129Z,95646.88
2022-12-03T12:53:24.990Z,95643.22
2022-12-03T12:55:58.229Z,95651.16
2022-12-03T12:58:29.933Z,95649.88
2022-12-03T13:01:06.020Z,95650.34
2022-12-03T13:03:41.218Z,95661.47
2022-12-03T13:06:16.636Z,95657.69
2022-12-03T13:08:48.747Z,95655.47
2022-12-03T13:11:34.877Z,95652.38
2022-12-03T13:14:12.511Z,95655.44
2022-12-03T13:16:41.861Z,95654.44
2022-12-03T13:19:23.731Z,95656.69
2022-12-03T13:21:56.103Z,95648.31
2022-12-03T13:24:33.768Z,95652.59
2022-12-03T13:27:10.936Z,95646.47
2022-12-03T13:29:40.184Z,95650.75
2022-12-03T13:32:15.430Z,95643.06
2022-12-03T13:34:46.901Z,95652.91
2022-12-03T13:37:21.239Z,95652.94
2022-12-03T13:39:52.111Z,95647.06
2022-12-03T13:42:42.854Z,95646.00
2022-12-03T13:45:33.941Z,95654.97
2022-12-03T13:48:06.067Z,95648.25
2022-12-03T13:50:39.924Z,95660.22
2022-12-03T13:53:21.559Z,95652.94
2022-12-03T13:55:53.669Z,95648.31
2022-12-03T13:58:22.979Z,95658.22
2022-12-03T14:00:52.185Z,95650.75
2022-12-03T14:03:21.471Z,95659.03
2022-12-03T14:05:52.246Z,95659.22
2022-12-03T14:08:21.400Z,95666.59
2022-12-03T14:10:53.153Z,95664.34
2022-12-03T14:13:26.566Z,95671.97
2022-12-03T14:15:55.830Z,95671.41
2022-12-03T14:18:25.092Z,95669.56
2022-12-03T14:20:56.410Z,95671.63
2022-12-03T14:23:26.755Z,95677.72
2022-12-03T14:25:56.516Z,95674.03
2022-12-03T14:28:25.832Z,95690.25
2022-12-03T14:30:55.303Z,95683.81
2022-12-03T14:33:24.509Z,95692.34
2022-12-03T14:35:55.147Z,95690.06
2022-12-03T14:38:26.429Z,95689.25
2022-12-03T14:40:55.531Z,95691.91
2022-12-03T14:43:24.559Z,95699.19
2022-12-03T14:45:55.987Z,95685.38
2022-12-03T14:48:25.111Z,95690.59
2022-12-03T14:50:54.166Z,95698.31
2022-12-03T14:53:27.269Z,95699.94
2022-12-03T14:55:59.597Z,95704.22
2022-12-03T14:58:29.426Z,95696.25
2022-12-03T15:00:59.275Z,95705.56
2022-12-03T15:03:28.639Z,95704.94
2022-12-03T15:05:57.834Z,95703.69
2022-12-03T15:08:38.496Z,95708.75
2022-12-03T15:11:09.329Z,95708.78
2022-12-03T15:13:39.332Z,95709.13
2022-12-03T15:16:09.169Z,95714.84
2022-12-03T15:18:38.418Z,95718.84
2022-12-03T15:21:08.971Z,95713.59
2022-12-03T15:23:54.857Z,95715.47
2022-12-03T15:26:26.253Z,95718.13
2022-12-03T15:28:55.473Z,95720.94
2022-12-03T15:31:24.739Z,95713.50
2022-12-03T15:33:54.439Z,95712.47
2022-12-03T15:36:23.863Z,95719.13
2022-12-03T15:38:53.035Z,95728.47
2022-12-03T15:41:24.674Z,95730.72
2022-12-03T15:43:55.330Z,95728.53
2022-12-03T15:46:24.914Z,95728.13
2022-12-03T15:48:56.962Z,95726.34
2022-12-03T15:51:29.284Z,95734.19
2022-12-03T15:53:58.521Z,95723.53
2022-12-03T15:56:27.829Z,95726.34
2022-12-03T15:59:11.297Z,95723.91
2022-12-03T16:01:40.749Z,95727.16
2022-12-03T16:04:10.122Z,95719.44
2022-12-03T16:06:42.804Z,95724.53
2022-12-03T16:09:12.421Z,95723.53
2022-12-03T16:11:41.617Z,95734.50
2022-12-03T16:14:12.536Z,95723.13
2022-12-03T16:16:45.960Z,95720.72
2022-12-03T16:19:16.683Z,95712.19
2022-12-03T16:21:45.941Z,95718.69
2022-12-03T16:24:15.907Z,95729.84
2022-12-03T16:26:45.638Z,95726.97
2022-12-03T16:29:17.528Z,95733.56
2022-12-03T16:31:46.793Z,95730.75
2022-12-03T16:34:16.187Z,95727.53
2022-12-03T16:36:46.015Z,95731.47
2022-12-03T16:39:16.576Z,95722.94
2022-12-03T16:41:47.473Z,95733.75
2022-12-03T16:44:32.428Z,95736.81
2022-12-03T16:47:04.768Z,95738.28
2022-12-03T16:49:36.033Z,95744.78
2022-12-03T16:52:10.774Z,95747.22
2022-12-03T16:54:40.466Z,95747.00
2022-12-03T16:57:15.590Z,95748.69
2022-12-03T16:59:46.307Z,95747.88
2022-12-03T17:02:17.380Z,95754.16
2022-12-03T17:04:47.464Z,95749.50
2022-12-03T17:07:17.854Z,95753.91
2022-12-03T17:09:46.969Z,95757.59
2022-12-03T17:12:17.233Z,95756.78
2022-12-03T17:14:48.573Z,95760.03
2022-12-03T17:17:18.895Z,95760.66
2022-12-03T17:19:48.234Z,95764.09
2022-12-03T17:22:17.620Z,95767.75
2022-12-03T17:24:46.773Z,95759.63
2022-12-03T17:27:16.292Z,95765.75
2022-12-03T17:29:45.537Z,95770.03
2022-12-03T17:32:17.175Z,95764.13
2022-12-03T17:34:46.497Z,95761.69
2022-12-03T17:37:15.656Z,95767.75
2022-12-03T17:39:44.896Z,95761.81
2022-12-03T17:42:14.263Z,95764.63
2022-12-03T17:44:46.925Z,95761.16
2022-12-03T17:47:17.631Z,95754.81
2022-12-03T17:49:47.478Z,95758.91
2022-12-03T17:52:17.134Z,95767.69
2022-12-03T17:57:45.177Z,95752.78
2022-12-03T18:00:15.031Z,95758.28
2022-12-03T18:02:46.070Z,95756.81
2022-12-03T18:05:15.442Z,95756.19
2022-12-03T18:07:45.818Z,95756.81
2022-12-03T18:10:16.271Z,95748.13
2022-12-03T18:12:45.738Z,95754.63
2022-12-03T18:15:14.980Z,95759.44
2022-12-03T18:17:45.789Z,95757.19
2022-12-03T18:20:15.847Z,95748.66
2022-12-03T18:22:46.611Z,95757.59
2022-12-03T18:25:16.060Z,95754.38
2022-12-03T18:27:45.510Z,95754.69
2022-12-03T18:30:17.469Z,95757.16
2022-12-03T18:32:50.132Z,95761.28
2022-12-03T18:35:20.814Z,95762.91
2022-12-03T18:37:53.909Z,95763.50
2022-12-03T18:40:27.373Z,95757.22
2022-12-03T18:42:58.744Z,95762.75
2022-12-03T18:45:28.756Z,95763.38
2022-12-03T18:48:00.185Z,95765.94
2022-12-03T18:50:29.794Z,95770.66
2022-12-03T18:52:59.378Z,95776.81
2022-12-03T18:55:34.965Z,95775.78
2022-12-03T18:58:04.967Z,95778.66
2022-12-03T19:00:36.099Z,95782.75
2022-12-03T19:03:07.717Z,95784.13
2022-12-03T19:05:38.117Z,95785.59
2022-12-03T19:08:14.726Z,95786.03
2022-12-03T19:10:45.997Z,95785.66
2022-12-03T19:13:15.988Z,95791.84
2022-12-03T19:15:47.789Z,95792.94
2022-12-03T19:18:19.954Z,95791.16
2022-12-03T19:20:59.781Z,95792.41
2022-12-03T19:23:29.293Z,95789.53
2022-12-03T19:26:02.006Z,95793.28
2022-12-03T19:28:31.752Z,95781.97
2022-12-03T19:31:02.281Z,95776.38
2022-12-03T19:33:34.023Z,95781.31
2022-12-03T19:36:05.356Z,95784.75
2022-12-03T19:38:44.574Z,95782.09
2022-12-03T19:41:14.519Z,95785.56
2022-12-03T19:43:51.003Z,95790.19
2022-12-03T19:46:22.864Z,95791.19
2022-12-03T19:48:55.601Z,95785.13
2022-12-03T19:51:36.136Z,95783.13
2022-12-03T19:54:08.328Z,95778.22
2022-12-03T19:56:41.074Z,95790.16
2022-12-03T19:59:13.161Z,95791.00
2022-12-03T20:01:43.757Z,95795.06
2022-12-03T20:04:19.452Z,95794.06
2022-12-03T20:06:48.716Z,95795.97
2022-12-03T20:09:18.746Z,95798.94
2022-12-03T20:12:14.879Z,95795.47
2022-12-03T20:14:47.002Z,95793.56
2022-12-03T20:17:17.233Z,95793.75
2022-12-03T20:19:49.794Z,95799.50
2022-12-03T20:22:20.523Z,95790.13
2022-12-03T20:24:51.344Z,95794.75
2022-12-03T20:27:23.083Z,95799.38
2022-12-03T20:29:53.615Z,95798.78
2022-12-03T20:32:24.319Z,95798.66
2022-12-03T20:34:55.099Z,95798.69
2022-12-03T20:37:24.533Z,95796.72
2022-12-03T20:39:56.107Z,95799.97
2022-12-03T20:42:29.312Z,95799.28
2022-12-03T20:45:00.073Z,95796.81
2022-12-03T20:47:29.548Z,95804.59
2022-12-03T20:50:01.703Z,95810.81
2022-12-03T20:52:31.251Z,95798.03
2022-12-03T20:55:02.625Z,95803.97
2022-12-03T20:57:32.960Z,95798.78
2022-12-03T21:00:02.368Z,95797.97
2022-12-03T21:02:32.220Z,95802.34
2022-12-03T21:05:04.324Z,95814.13
2022-12-03T21:07:34.021Z,95808.72
2022-12-03T21:10:03.889Z,95803.09
2022-12-03T21:12:48.579Z,95810.34
2022-12-03T21:15:19.153Z,95811.13
2022-12-03T21:17:51.633Z,95804.28
2022-12-03T21:20:23.323Z,95802.91
2022-12-03T21:22:52.495Z,95798.56
2022-12-03T21:25:23.315Z,95806.97
2022-12-03T21:27:52.411Z,95798.66
2022-12-03T21:30:21.675Z,95809.97
2022-12-03T21:32:51.556Z,95804.31
2022-12-03T21:35:22.486Z,95806.03
2022-12-03T21:37:52.067Z,95806.19
2022-12-03T21:40:21.452Z,95802.50
2022-12-03T21:42:51.052Z,95810.81
2022-12-03T21:45:21.042Z,95807.97
2022-12-03T21:47:51.618Z,95807.78
2022-12-03T21:50:23.248Z,95809.22
2022-12-03T21:52:52.939Z,95814.94
2022-12-03T21:55:22.218Z,95815.16
2022-12-03T21:57:52.045Z,95807.84
2022-12-03T22:00:22.104Z,95810.66
2022-12-03T22:02:52.693Z,95816.13
2022-12-03T22:05:23.591Z,95815.59
2022-12-03T22:07:53.266Z,95812.16
2022-12-03T22:10:23.491Z,95807.94
2022-12-03T22:12:53.459Z,95813.19
2022-12-03T22:15:22.767Z,95802.56
2022-12-03T22:17:51.881Z,95811.28
2022-12-03T22:20:23.307Z,95811.91
2022-12-03T22:22:52.733Z,95816.31
2022-12-03T22:25:21.870Z,95803.44
2022-12-03T22:27:51.176Z,95801.53
2022-12-03T22:30:20.510Z,95789.56
2022-12-03T22:32:49.665Z,95789.25
2022-12-03T22:35:19.441Z,95796.69
2022-12-03T22:37:50.186Z,95797.16
2022-12-03T22:40:19.573Z,95795.06
2022-12-03T22:42:51.060Z,95798.59
2022-12-03T22:45:20.622Z,95797.31
2022-12-03T22:47:49.786Z,95789.53
2022-12-03T22:50:20.126Z,95792.34
2022-12-03T22:52:50.805Z,95789.97
2022-12-03T22:55:19.922Z,95786.63
2022-12-03T22:57:49.015Z,95781.56
2022-12-03T23:00:30.328Z,95785.00
2022-12-03T23:02:59.609Z,95790.63
2022-12-03T23:05:34.641Z,95783.78
2022-12-03T23:08:05.744Z,95796.78
2022-12-03T23:10:37.559Z,95789.63
2022-12-03T23:13:07.582Z,95780.34
2022-12-03T23:15:37.245Z,95773.75
2022-12-03T23:18:06.788Z,95775.84
2022-12-03T23:20:35.929Z,95783.19
2022-12-03T23:23:07.278Z,95772.56
2022-12-03T23:25:37.490Z,95771.22
2022-12-03T23:28:08.427Z,95779.09
2022-12-03T23:30:38.599Z,95774.56
2022-12-03T23:33:08.680Z,95782.28
2022-12-03T23:35:40.612Z,95778.66
2022-12-03T23:38:12.511Z,95779.72
2022-12-03T23:40:47.683Z,95779.66
2022-12-03T23:43:17.399Z,95782.31
2022-12-03T23:45:47.482Z,95781.38
2022-12-03T23:48:17.316Z,95786.63
2022-12-03T23:50:46.524Z,95782.09
2022-12-03T23:53:17.391Z,95790.06
2022-12-03T23:55:46.590Z,95786.03
2022-12-03T23:58:16.528Z,95787.44
